createdAt,value
2022-10-14T00:01:20.543Z,99.90
2022-10-14T00:03:48.246Z,99.90
2022-10-14T00:06:23.979Z,99.90
2022-10-14T00:08:51.845Z,99.90
2022-10-14T00:11:25.441Z,99.90
2022-10-14T00:13:58.049Z,99.90
2022-10-14T00:16:29.693Z,99.90
2022-10-14T00:19:01.125Z,99.90
2022-10-14T00:21:31.076Z,99.90
2022-10-14T00:24:01.100Z,99.90
2022-10-14T00:26:31.937Z,99.90
2022-10-14T00:29:00.876Z,99.90
2022-10-14T00:31:34.040Z,99.90
2022-10-14T00:34:01.868Z,99.90
2022-10-14T00:36:29.919Z,99.90
2022-10-14T00:38:57.278Z,99.90
2022-10-14T00:41:33.431Z,99.90
2022-10-14T00:44:07.697Z,99.90
2022-10-14T00:46:40.540Z,99.90
2022-10-14T00:49:33.377Z,99.90
2022-10-14T00:52:06.394Z,99.90
2022-10-14T00:54:38.026Z,99.90
2022-10-14T00:57:06.112Z,99.90
2022-10-14T00:59:34.562Z,99.90
2022-10-14T01:02:02.290Z,99.90
2022-10-14T01:04:29.852Z,99.90
2022-10-14T01:07:09.719Z,99.90
2022-10-14T01:09:41.847Z,99.90
2022-10-14T01:12:47.894Z,99.90
2022-10-14T01:15:35.569Z,99.90
2022-10-14T01:18:50.125Z,99.90
2022-10-14T01:21:29.192Z,99.90
2022-10-14T01:24:33.124Z,99.90
2022-10-14T01:27:26.414Z,99.90
2022-10-14T01:30:14.554Z,99.90
2022-10-14T01:32:59.579Z,99.90
2022-10-14T01:35:39.024Z,99.90
2022-10-14T01:38:33.723Z,99.90
2022-10-14T01:41:10.213Z,99.90
2022-10-14T01:43:39.706Z,99.90
2022-10-14T01:46:08.298Z,99.90
2022-10-14T01:48:41.991Z,99.90
2022-10-14T01:51:17.607Z,99.90
2022-10-14T01:53:55.020Z,99.90
2022-10-14T01:56:25.611Z,99.90
2022-10-14T01:58:54.012Z,99.90
2022-10-14T02:01:23.852Z,99.90
2022-10-14T02:03:51.321Z,99.90
2022-10-14T02:06:34.751Z,99.90
2022-10-14T02:09:02.711Z,99.90
2022-10-14T02:11:41.684Z,99.90
2022-10-14T02:14:19.866Z,99.90
2022-10-14T02:17:24.817Z,99.90
2022-10-14T02:20:05.786Z,99.90
2022-10-14T02:22:40.431Z,99.90
2022-10-14T02:25:20.123Z,99.90
2022-10-14T02:27:49.251Z,99.90
2022-10-14T02:30:17.959Z,99.90
2022-10-14T02:32:47.238Z,99.90
2022-10-14T02:35:18.508Z,99.90
2022-10-14T02:37:49.494Z,99.90
2022-10-14T02:40:33.415Z,99.90
2022-10-14T02:43:00.850Z,99.90
2022-10-14T02:45:28.296Z,99.90
2022-10-14T02:47:55.877Z,99.90
2022-10-14T02:50:23.185Z,99.90
2022-10-14T02:52:52.221Z,99.90
2022-10-14T02:55:21.211Z,99.90
2022-10-14T02:57:49.022Z,99.90
2022-10-14T03:00:17.156Z,99.90
2022-10-14T03:02:44.717Z,99.90
2022-10-14T03:05:13.840Z,99.90
2022-10-14T03:07:41.309Z,99.90
2022-10-14T03:10:12.301Z,99.90
2022-10-14T03:12:39.991Z,99.90
2022-10-14T03:15:14.939Z,99.90
2022-10-14T03:17:42.359Z,99.90
2022-10-14T03:20:10.478Z,99.90
2022-10-14T03:22:48.718Z,99.90
2022-10-14T03:25:17.871Z,99.90
2022-10-14T03:28:05.539Z,99.90
2022-10-14T03:30:45.157Z,99.90
2022-10-14T03:33:20.413Z,99.90
2022-10-14T03:35:54.833Z,99.90
2022-10-14T03:38:34.558Z,99.90
2022-10-14T03:41:02.919Z,99.90
2022-10-14T03:43:33.922Z,99.90
2022-10-14T03:46:02.534Z,99.90
2022-10-14T03:48:30.448Z,99.90
2022-10-14T03:50:58.394Z,99.90
2022-10-14T03:53:26.505Z,99.90
2022-10-14T03:55:54.624Z,99.90
2022-10-14T03:58:24.615Z,99.90
2022-10-14T04:00:58.486Z,99.90
2022-10-14T04:03:35.170Z,99.90
2022-10-14T04:06:02.582Z,99.90
2022-10-14T04:08:30.975Z,99.90
2022-10-14T04:11:03.030Z,99.90
2022-10-14T04:13:37.193Z,99.90
2022-10-14T04:16:09.971Z,99.90
2022-10-14T04:18:49.885Z,99.90
2022-10-14T04:21:22.341Z,99.90
2022-10-14T04:23:52.316Z,99.90
2022-10-14T04:26:30.519Z,99.90
2022-10-14T04:28:59.060Z,99.90
2022-10-14T04:31:38.554Z,99.90
2022-10-14T04:34:08.763Z,99.90
2022-10-14T04:36:41.929Z,99.90
2022-10-14T04:39:31.999Z,99.90
2022-10-14T04:42:00.122Z,99.90
2022-10-14T04:44:29.530Z,99.90
2022-10-14T04:46:57.024Z,99.90
2022-10-14T04:49:27.477Z,99.90
2022-10-14T04:52:08.728Z,99.90
2022-10-14T04:54:49.042Z,99.90
2022-10-14T04:57:16.362Z,99.90
2022-10-14T04:59:48.925Z,99.90
2022-10-14T05:02:22.973Z,99.90
2022-10-14T05:04:56.582Z,99.90
2022-10-14T05:07:24.579Z,99.90
2022-10-14T05:09:57.305Z,99.90
2022-10-14T05:12:34.363Z,99.90
2022-10-14T05:15:05.440Z,99.90
2022-10-14T05:17:50.676Z,99.90
2022-10-14T05:20:22.667Z,99.90
2022-10-14T05:22:53.827Z,99.90
2022-10-14T05:25:24.307Z,99.90
2022-10-14T05:27:55.699Z,99.90
2022-10-14T05:30:23.836Z,99.90
2022-10-14T05:32:53.103Z,99.90
2022-10-14T05:35:40.142Z,99.90
2022-10-14T05:38:12.349Z,99.90
2022-10-14T05:40:45.179Z,99.90
2022-10-14T05:43:13.925Z,99.90
2022-10-14T05:45:46.283Z,99.90
2022-10-14T05:48:14.058Z,99.90
2022-10-14T05:50:43.404Z,99.90
2022-10-14T05:53:15.525Z,99.90
2022-10-14T05:55:47.775Z,99.90
2022-10-14T05:58:15.510Z,99.90
2022-10-14T06:00:45.031Z,99.90
2022-10-14T06:03:17.995Z,99.90
2022-10-14T06:05:46.478Z,99.90
2022-10-14T06:08:14.267Z,99.90
2022-10-14T06:10:41.878Z,99.90
2022-10-14T06:13:09.463Z,99.90
2022-10-14T06:15:39.048Z,99.90
2022-10-14T06:18:07.836Z,99.90
2022-10-14T06:20:36.335Z,99.90
2022-10-14T06:23:06.315Z,99.90
2022-10-14T06:25:33.772Z,99.90
2022-10-14T06:28:05.353Z,99.90
2022-10-14T06:30:34.762Z,99.90
2022-10-14T06:33:02.019Z,99.90
2022-10-14T06:35:29.626Z,99.90
2022-10-14T06:37:57.804Z,99.90
2022-10-14T06:40:25.889Z,99.90
2022-10-14T06:42:53.789Z,99.90
2022-10-14T06:45:21.233Z,99.90
2022-10-14T06:47:49.017Z,99.90
2022-10-14T06:50:16.366Z,99.90
2022-10-14T06:52:48.480Z,99.90
2022-10-14T06:55:16.297Z,99.90
2022-10-14T06:57:46.630Z,99.90
2022-10-14T07:00:14.336Z,99.90
2022-10-14T07:02:41.978Z,99.90
2022-10-14T07:05:09.810Z,99.90
2022-10-14T07:07:37.048Z,99.90
2022-10-14T07:10:04.943Z,99.90
2022-10-14T07:12:32.314Z,99.90
2022-10-14T07:14:59.970Z,99.90
2022-10-14T07:17:27.248Z,99.90
2022-10-14T07:19:54.569Z,99.90
2022-10-14T07:22:24.586Z,99.90
2022-10-14T07:24:55.012Z,99.90
2022-10-14T07:27:23.986Z,99.90
2022-10-14T07:29:52.385Z,99.90
2022-10-14T07:32:20.941Z,99.90
2022-10-14T07:34:48.181Z,99.90
2022-10-14T07:37:15.823Z,99.90
2022-10-14T07:39:43.182Z,99.90
2022-10-14T07:42:10.988Z,99.90
2022-10-14T07:44:39.953Z,99.90
2022-10-14T07:47:07.727Z,99.90
2022-10-14T07:49:35.462Z,99.90
2022-10-14T07:52:02.941Z,99.90
2022-10-14T07:54:32.516Z,99.90
2022-10-14T07:57:00.313Z,99.90
2022-10-14T07:59:27.640Z,99.90
2022-10-14T08:01:57.095Z,99.90
2022-10-14T08:04:25.111Z,99.90
2022-10-14T08:06:54.250Z,99.90
2022-10-14T08:09:22.033Z,99.90
2022-10-14T08:11:49.603Z,99.90
2022-10-14T08:14:17.337Z,99.90
2022-10-14T08:16:48.101Z,99.90
2022-10-14T08:19:15.585Z,99.90
2022-10-14T08:21:44.441Z,99.90
2022-10-14T08:24:14.907Z,99.90
2022-10-14T08:26:51.815Z,99.90
2022-10-14T08:29:19.432Z,99.90
2022-10-14T08:31:46.965Z,99.90
2022-10-14T08:34:14.393Z,99.90
2022-10-14T08:36:41.914Z,99.90
2022-10-14T08:42:13.570Z,99.90
2022-10-14T08:44:48.249Z,99.90
2022-10-14T08:47:24.203Z,99.90
2022-10-14T08:50:04.030Z,99.90
2022-10-14T08:52:40.006Z,99.90
2022-10-14T08:55:44.111Z,99.90
2022-10-14T08:58:35.109Z,99.90
2022-10-14T09:01:13.713Z,99.90
2022-10-14T09:03:42.713Z,99.90
2022-10-14T09:06:24.453Z,99.90
2022-10-14T09:08:54.955Z,99.90
2022-10-14T09:11:25.269Z,99.90
2022-10-14T09:13:58.043Z,99.90
2022-10-14T09:16:37.537Z,99.90
2022-10-14T09:19:12.303Z,99.90
2022-10-14T09:21:53.472Z,99.90
2022-10-14T09:24:22.608Z,99.90
2022-10-14T09:26:53.950Z,99.90
2022-10-14T09:29:27.656Z,99.90
2022-10-14T09:32:02.900Z,99.90
2022-10-14T09:34:38.991Z,99.90
2022-10-14T09:37:26.158Z,99.90
2022-10-14T09:39:59.349Z,99.90
2022-10-14T09:43:02.140Z,99.90
2022-10-14T09:45:49.039Z,99.90
2022-10-14T09:48:50.239Z,99.90
2022-10-14T09:51:30.074Z,99.90
2022-10-14T09:54:05.117Z,99.90
2022-10-14T09:56:41.989Z,99.90
2022-10-14T09:59:21.463Z,99.90
2022-10-14T10:01:53.770Z,99.90
2022-10-14T10:04:33.675Z,99.90
2022-10-14T10:07:06.030Z,99.90
2022-10-14T10:09:36.492Z,99.90
2022-10-14T10:12:26.403Z,99.90
2022-10-14T10:15:01.004Z,99.90
2022-10-14T10:17:36.326Z,99.90
2022-10-14T10:20:28.650Z,99.90
2022-10-14T10:22:57.112Z,99.90
2022-10-14T10:25:28.947Z,99.90
2022-10-14T10:27:59.977Z,99.90
2022-10-14T10:30:39.864Z,99.90
2022-10-14T10:33:19.448Z,99.90
2022-10-14T10:36:08.700Z,99.90
2022-10-14T10:39:05.227Z,98.20
2022-10-14T10:41:59.369Z,98.00
2022-10-14T10:45:16.250Z,97.50
2022-10-14T10:48:01.350Z,97.20
2022-10-14T10:51:12.704Z,97.20
2022-10-14T10:54:02.915Z,96.70
2022-10-14T10:56:42.204Z,96.10
2022-10-14T10:59:31.113Z,95.10
2022-10-14T11:02:33.771Z,94.60
2022-10-14T11:05:25.932Z,94.00
2022-10-14T11:08:37.957Z,94.20
2022-10-14T11:11:48.711Z,93.40
2022-10-14T11:14:24.647Z,92.90
2022-10-14T11:17:16.230Z,92.20
2022-10-14T11:20:02.589Z,93.00
2022-10-14T11:23:20.922Z,92.90
2022-10-14T11:25:55.969Z,93.10
2022-10-14T11:28:48.792Z,93.00
2022-10-14T11:31:41.750Z,93.10
2022-10-14T11:34:41.941Z,92.50
2022-10-14T11:37:41.174Z,93.40
2022-10-14T11:40:32.020Z,93.30
2022-10-14T11:43:13.694Z,93.20
2022-10-14T11:45:53.926Z,93.40
2022-10-14T11:48:33.963Z,93.20
2022-10-14T11:51:34.784Z,93.00
2022-10-14T11:54:08.678Z,92.70
2022-10-14T11:57:20.473Z,92.00
2022-10-14T12:00:31.020Z,92.30
2022-10-14T12:03:10.789Z,91.80
2022-10-14T12:06:04.269Z,92.10
2022-10-14T12:08:57.918Z,91.10
2022-10-14T12:11:48.812Z,92.10
2022-10-14T12:14:44.880Z,92.10
2022-10-14T12:17:42.371Z,92.30
2022-10-14T12:20:20.293Z,92.50
2022-10-14T12:22:51.770Z,92.80
2022-10-14T12:25:22.466Z,92.60
2022-10-14T12:27:52.420Z,92.30
2022-10-14T12:30:42.647Z,92.90
2022-10-14T12:33:22.881Z,93.70
2022-10-14T12:35:52.733Z,94.30
2022-10-14T12:38:21.635Z,94.30
2022-10-14T12:40:50.453Z,94.00
2022-10-14T12:43:29.778Z,93.70
2022-10-14T12:46:02.900Z,93.30
2022-10-14T12:48:35.843Z,94.40
2022-10-14T12:51:16.997Z,95.00
2022-10-14T12:54:12.611Z,95.70
2022-10-14T12:56:54.743Z,96.90
2022-10-14T12:59:38.717Z,97.30
2022-10-14T13:02:43.270Z,97.80
2022-10-14T13:05:32.588Z,98.30
2022-10-14T13:08:16.285Z,98.60
2022-10-14T13:11:02.558Z,98.90
2022-10-14T13:14:04.842Z,99.10
2022-10-14T13:16:32.131Z,99.30
2022-10-14T13:19:25.765Z,99.50
2022-10-14T13:21:55.498Z,99.60
2022-10-14T13:24:26.236Z,99.60
2022-10-14T13:26:54.217Z,99.80
2022-10-14T13:29:21.585Z,99.90
2022-10-14T13:32:22.693Z,99.90
2022-10-14T13:35:16.404Z,99.90
2022-10-14T13:37:53.059Z,99.90
2022-10-14T13:40:35.508Z,99.90
2022-10-14T13:43:12.135Z,99.90
2022-10-14T13:45:48.301Z,99.90
2022-10-14T13:48:31.547Z,99.90
2022-10-14T13:51:35.894Z,99.90
2022-10-14T13:54:23.140Z,99.90
2022-10-14T14:00:41.240Z,99.90
2022-10-14T14:02:49.006Z,99.90
2022-10-14T14:05:26.074Z,99.90
2022-10-14T14:11:18.672Z,99.90
2022-10-14T14:13:59.929Z,99.90
2022-10-14T14:16:41.272Z,99.90
2022-10-14T14:19:20.967Z,99.90
2022-10-14T14:21:49.956Z,99.90
2022-10-14T14:24:25.846Z,99.90
2022-10-14T14:26:56.576Z,99.90
2022-10-14T14:29:31.613Z,99.90
2022-10-14T14:32:09.030Z,99.90
2022-10-14T14:34:38.635Z,99.90
2022-10-14T14:37:34.380Z,99.90
2022-10-14T14:40:00.676Z,99.90
2022-10-14T14:42:34.073Z,99.90
2022-10-14T14:45:05.992Z,99.90
2022-10-14T14:47:35.693Z,99.90
2022-10-14T14:50:28.943Z,99.90
2022-10-14T14:53:03.350Z,99.90
2022-10-14T14:55:36.269Z,99.90
2022-10-14T14:58:05.563Z,99.90
2022-10-14T15:00:32.967Z,99.90
2022-10-14T15:03:02.366Z,99.90
2022-10-14T15:05:32.398Z,99.90
2022-10-14T15:07:59.743Z,99.90
2022-10-14T15:10:30.508Z,99.90
2022-10-14T15:13:02.502Z,99.90
2022-10-14T15:15:35.076Z,99.90
2022-10-14T15:18:38.011Z,99.90
2022-10-14T15:21:15.090Z,99.90
2022-10-14T15:23:55.497Z,99.90
2022-10-14T15:26:34.205Z,99.90
2022-10-14T15:29:26.065Z,99.90
2022-10-14T15:32:02.482Z,99.90
2022-10-14T15:34:30.108Z,99.90
2022-10-14T15:36:57.434Z,99.90
2022-10-14T15:39:25.390Z,99.90
2022-10-14T15:41:55.233Z,99.90
2022-10-14T15:44:25.563Z,99.90
2022-10-14T15:47:11.364Z,99.90
2022-10-14T15:49:45.189Z,99.90
2022-10-14T15:52:19.358Z,99.90
2022-10-14T15:54:50.754Z,99.90
2022-10-14T15:57:18.116Z,99.90
2022-10-14T15:59:48.738Z,99.90
2022-10-14T16:02:22.715Z,99.90
2022-10-14T16:05:18.218Z,99.90
2022-10-14T16:07:41.007Z,99.90
2022-10-14T16:10:12.737Z,99.90
2022-10-14T16:12:41.074Z,99.90
2022-10-14T16:15:38.068Z,99.90
2022-10-14T16:18:05.517Z,99.90
2022-10-14T16:20:35.647Z,99.90
2022-10-14T16:23:04.795Z,99.90
2022-10-14T16:25:41.197Z,99.90
2022-10-14T16:28:11.861Z,99.90
2022-10-14T16:30:41.711Z,99.90
2022-10-14T16:35:42.036Z,99.90
2022-10-14T16:38:12.088Z,99.90
2022-10-14T16:40:39.370Z,99.90
2022-10-14T16:43:08.047Z,99.90
2022-10-14T16:45:35.504Z,99.90
2022-10-14T16:48:03.248Z,99.90
2022-10-14T16:50:30.664Z,99.90
2022-10-14T16:53:16.830Z,99.90
2022-10-14T16:55:44.587Z,99.90
2022-10-14T16:58:12.474Z,99.90
2022-10-14T17:00:42.266Z,99.90
2022-10-14T17:03:14.461Z,99.90
2022-10-14T17:05:47.184Z,99.90
2022-10-14T17:08:17.375Z,99.90
2022-10-14T17:10:53.873Z,99.90
2022-10-14T17:13:23.591Z,99.90
2022-10-14T17:15:52.350Z,99.90
2022-10-14T17:18:23.320Z,99.90
2022-10-14T17:21:04.024Z,99.90
2022-10-14T17:23:32.038Z,99.90
2022-10-14T17:25:59.519Z,99.90
2022-10-14T17:28:27.081Z,99.90
2022-10-14T17:30:56.992Z,99.90
2022-10-14T17:33:26.232Z,99.90
2022-10-14T17:36:00.533Z,99.90
2022-10-14T17:38:29.931Z,99.90
2022-10-14T17:41:07.571Z,99.90
2022-10-14T17:43:36.957Z,99.90
2022-10-14T17:46:13.186Z,99.90
2022-10-14T17:48:42.650Z,99.90
2022-10-14T17:51:12.048Z,99.90
2022-10-14T17:53:40.678Z,99.90
2022-10-14T17:56:14.001Z,99.90
2022-10-14T17:58:41.845Z,99.90
2022-10-14T18:01:16.270Z,99.90
2022-10-14T18:03:45.253Z,99.90
2022-10-14T18:06:16.735Z,99.90
2022-10-14T18:08:45.984Z,99.90
2022-10-14T18:11:13.424Z,99.90
2022-10-14T18:13:44.178Z,99.90
2022-10-14T18:16:14.547Z,99.90
2022-10-14T18:18:42.388Z,99.90
2022-10-14T18:21:10.619Z,99.90
2022-10-14T18:23:41.925Z,99.90
2022-10-14T18:26:14.684Z,99.90
2022-10-14T18:28:45.175Z,99.90
2022-10-14T18:31:18.199Z,99.90
2022-10-14T18:33:47.304Z,99.90
2022-10-14T18:36:17.148Z,99.90
2022-10-14T18:38:51.249Z,99.90
2022-10-14T18:41:19.095Z,99.90
2022-10-14T18:43:47.262Z,99.90
2022-10-14T18:46:22.643Z,99.90
2022-10-14T18:48:52.863Z,99.90
2022-10-14T18:51:28.356Z,99.90
2022-10-14T18:54:00.948Z,99.90
2022-10-14T18:56:33.512Z,99.90
2022-10-14T18:59:05.582Z,99.90
2022-10-14T19:01:35.089Z,99.90
2022-10-14T19:04:05.872Z,99.90
2022-10-14T19:06:34.158Z,99.90
2022-10-14T19:09:02.732Z,99.90
2022-10-14T19:11:31.784Z,99.90
2022-10-14T19:14:04.108Z,99.90
2022-10-14T19:16:33.846Z,99.90
2022-10-14T19:19:08.557Z,99.90
2022-10-14T19:21:40.954Z,99.90
2022-10-14T19:24:08.532Z,99.90
2022-10-14T19:26:38.578Z,99.90
2022-10-14T19:29:10.536Z,99.90
2022-10-14T19:31:42.747Z,99.90
2022-10-14T19:34:12.666Z,99.90
2022-10-14T19:36:43.079Z,99.90
2022-10-14T19:39:14.380Z,99.90
2022-10-14T19:41:46.593Z,99.90
2022-10-14T19:44:15.948Z,99.90
2022-10-14T19:46:44.202Z,99.90
2022-10-14T19:49:15.916Z,99.90
2022-10-14T19:51:43.701Z,99.90
2022-10-14T19:54:12.857Z,99.90
2022-10-14T19:56:44.427Z,99.90
2022-10-14T19:59:13.644Z,99.90
2022-10-14T20:01:42.121Z,99.90
2022-10-14T20:04:10.499Z,99.90
2022-10-14T20:06:40.054Z,99.90
2022-10-14T20:09:08.388Z,99.90
2022-10-14T20:11:36.098Z,99.90
2022-10-14T20:14:10.407Z,99.90
2022-10-14T20:16:38.114Z,99.90
2022-10-14T20:19:08.556Z,99.90
2022-10-14T20:21:35.896Z,99.90
2022-10-14T20:24:03.288Z,99.90
2022-10-14T20:26:32.974Z,99.90
2022-10-14T20:29:00.443Z,99.90
2022-10-14T20:31:27.939Z,99.90
2022-10-14T20:33:56.913Z,99.90
2022-10-14T20:36:24.480Z,99.90
2022-10-14T20:38:51.982Z,99.90
2022-10-14T20:41:22.085Z,99.90
2022-10-14T20:43:53.895Z,99.90
2022-10-14T20:46:22.770Z,99.90
2022-10-14T20:48:54.093Z,99.90
2022-10-14T20:51:22.910Z,99.90
2022-10-14T20:53:50.538Z,99.90
2022-10-14T20:56:17.799Z,99.90
2022-10-14T20:58:45.159Z,99.90
2022-10-14T21:01:17.606Z,99.90
2022-10-14T21:03:47.710Z,99.90
2022-10-14T21:06:22.699Z,99.90
2022-10-14T21:08:51.884Z,99.90
2022-10-14T21:11:21.533Z,99.90
2022-10-14T21:13:51.246Z,99.90
2022-10-14T21:16:24.819Z,99.90
2022-10-14T21:19:00.492Z,99.90
2022-10-14T21:21:31.723Z,99.90
2022-10-14T21:23:59.683Z,99.90
2022-10-14T21:26:30.236Z,99.90
2022-10-14T21:28:57.760Z,99.90
2022-10-14T21:31:25.068Z,99.90
2022-10-14T21:34:01.174Z,99.90
2022-10-14T21:36:32.028Z,99.90
2022-10-14T21:39:01.067Z,99.90
2022-10-14T21:41:28.591Z,99.90
2022-10-14T21:43:59.203Z,99.90
2022-10-14T21:46:27.680Z,99.90
2022-10-14T21:49:00.098Z,99.90
2022-10-14T21:51:29.366Z,99.90
2022-10-14T21:53:57.414Z,99.90
2022-10-14T21:56:27.557Z,99.90
2022-10-14T21:58:58.182Z,99.90
2022-10-14T22:01:29.843Z,99.90
2022-10-14T22:04:03.998Z,99.90
2022-10-14T22:06:36.409Z,99.90
2022-10-14T22:09:07.296Z,99.90
2022-10-14T22:11:37.748Z,99.90
2022-10-14T22:14:07.545Z,99.90
2022-10-14T22:16:36.415Z,99.90
2022-10-14T22:19:06.404Z,99.90
2022-10-14T22:21:38.247Z,99.90
2022-10-14T22:26:41.024Z,99.90
2022-10-14T22:29:14.065Z,99.90
2022-10-14T22:31:43.062Z,99.90
2022-10-14T22:34:12.895Z,99.90
2022-10-14T22:36:42.831Z,99.90
2022-10-14T22:39:15.324Z,99.90
2022-10-14T22:41:42.750Z,99.90
2022-10-14T22:44:10.692Z,99.90
2022-10-14T22:46:40.014Z,99.90
2022-10-14T22:49:08.536Z,99.90
2022-10-14T22:51:41.367Z,99.90
2022-10-14T22:54:09.608Z,99.90
2022-10-14T22:56:41.855Z,99.90
2022-10-14T22:59:12.019Z,99.90
2022-10-14T23:01:41.449Z,99.90
2022-10-14T23:04:16.761Z,99.90
2022-10-14T23:06:49.300Z,99.90
2022-10-14T23:09:16.964Z,99.90
2022-10-14T23:11:44.321Z,99.90
2022-10-14T23:14:11.643Z,99.90
2022-10-14T23:16:44.024Z,99.90
2022-10-14T23:19:11.747Z,99.90
2022-10-14T23:21:39.620Z,99.90
2022-10-14T23:24:10.807Z,99.90
2022-10-14T23:26:38.730Z,99.90
2022-10-14T23:29:11.207Z,99.90
2022-10-14T23:31:39.920Z,99.90
2022-10-14T23:34:11.528Z,99.90
2022-10-14T23:36:39.397Z,99.90
2022-10-14T23:39:10.457Z,99.90
2022-10-14T23:41:37.911Z,99.90
2022-10-14T23:44:07.527Z,99.90
2022-10-14T23:46:35.356Z,99.90
2022-10-14T23:49:07.285Z,99.90
2022-10-14T23:51:42.497Z,99.90
2022-10-14T23:54:11.053Z,99.90
2022-10-14T23:56:38.390Z,99.90
2022-10-14T23:59:06.422Z,99.90
